sensor_id;sensor_type;location;lat;lon;timestamp;temperature;humidity
48686;DHT22;34485;51.536;3.816;2022-09-09T00:01:52;15.70;99.90
48686;DHT22;34485;51.536;3.816;2022-09-09T00:09:52;15.60;99.90
48686;DHT22;34485;51.536;3.816;2022-09-09T00:12:37;15.60;99.90
48686;DHT22;34485;51.536;3.816;2022-09-09T00:15:11;15.60;99.90
48686;DHT22;34485;51.536;3.816;2022-09-09T00:20:45;15.50;99.90
48686;DHT22;34485;51.536;3.816;2022-09-09T00:23:24;15.50;99.90
48686;DHT22;34485;51.536;3.816;2022-09-09T00:28:52;15.50;99.90
48686;DHT22;34485;51.536;3.816;2022-09-09T00:31:24;15.50;99.90
48686;DHT22;34485;51.536;3.816;2022-09-09T00:33:50;15.40;99.90
48686;DHT22;34485;51.536;3.816;2022-09-09T00:36:21;15.40;99.90
48686;DHT22;34485;51.536;3.816;2022-09-09T00:38:52;15.50;99.90
48686;DHT22;34485;51.536;3.816;2022-09-09T00:54:51;15.20;99.90
48686;DHT22;34485;51.536;3.816;2022-09-09T00:57:28;15.20;99.90
48686;DHT22;34485;51.536;3.816;2022-09-09T01:00:24;15.20;99.90
48686;DHT22;34485;51.536;3.816;2022-09-09T01:08:01;15.20;99.90
48686;DHT22;34485;51.536;3.816;2022-09-09T01:10:39;15.20;99.90
48686;DHT22;34485;51.536;3.816;2022-09-09T01:13:15;15.10;99.90
48686;DHT22;34485;51.536;3.816;2022-09-09T01:15:44;15.10;99.90
48686;DHT22;34485;51.536;3.816;2022-09-09T01:18:14;15.00;99.90
48686;DHT22;34485;51.536;3.816;2022-09-09T01:26:30;15.00;99.90
48686;DHT22;34485;51.536;3.816;2022-09-09T01:28:57;15.00;99.90
48686;DHT22;34485;51.536;3.816;2022-09-09T01:31:32;14.90;99.90
48686;DHT22;34485;51.536;3.816;2022-09-09T01:34:00;14.90;99.90
48686;DHT22;34485;51.536;3.816;2022-09-09T01:38:57;14.90;99.90
48686;DHT22;34485;51.536;3.816;2022-09-09T01:41:23;14.90;99.90
48686;DHT22;34485;51.536;3.816;2022-09-09T01:43:48;14.90;99.90
48686;DHT22;34485;51.536;3.816;2022-09-09T01:46:14;14.80;99.90
48686;DHT22;34485;51.536;3.816;2022-09-09T01:48:41;14.80;99.90
48686;DHT22;34485;51.536;3.816;2022-09-09T01:51:08;14.80;99.90
48686;DHT22;34485;51.536;3.816;2022-09-09T01:53:36;14.80;99.90
48686;DHT22;34485;51.536;3.816;2022-09-09T01:56:29;14.70;99.90
48686;DHT22;34485;51.536;3.816;2022-09-09T02:02:13;14.70;99.90
48686;DHT22;34485;51.536;3.816;2022-09-09T02:04:44;14.60;99.90
48686;DHT22;34485;51.536;3.816;2022-09-09T02:10:30;14.60;99.90
48686;DHT22;34485;51.536;3.816;2022-09-09T02:12:53;14.60;99.90
48686;DHT22;34485;51.536;3.816;2022-09-09T02:15:42;14.60;99.90
48686;DHT22;34485;51.536;3.816;2022-09-09T02:18:10;14.50;99.90
48686;DHT22;34485;51.536;3.816;2022-09-09T02:20:39;14.50;99.90
48686;DHT22;34485;51.536;3.816;2022-09-09T02:23:07;14.50;99.90
48686;DHT22;34485;51.536;3.816;2022-09-09T02:25:35;14.50;99.90
48686;DHT22;34485;51.536;3.816;2022-09-09T02:28:04;14.50;99.90
48686;DHT22;34485;51.536;3.816;2022-09-09T02:30:32;14.50;99.90
48686;DHT22;34485;51.536;3.816;2022-09-09T02:33:01;14.50;99.90
48686;DHT22;34485;51.536;3.816;2022-09-09T02:35:29;14.50;99.90
48686;DHT22;34485;51.536;3.816;2022-09-09T02:37:59;14.60;99.90
48686;DHT22;34485;51.536;3.816;2022-09-09T02:40:26;14.60;99.90
48686;DHT22;34485;51.536;3.816;2022-09-09T02:42:54;14.60;99.90
48686;DHT22;34485;51.536;3.816;2022-09-09T02:45:24;14.60;99.90
48686;DHT22;34485;51.536;3.816;2022-09-09T02:50:59;14.60;99.90
48686;DHT22;34485;51.536;3.816;2022-09-09T02:53:53;14.60;99.90
48686;DHT22;34485;51.536;3.816;2022-09-09T02:56:22;14.60;99.90
48686;DHT22;34485;51.536;3.816;2022-09-09T02:58:50;14.60;99.90
48686;DHT22;34485;51.536;3.816;2022-09-09T03:01:17;14.70;99.90
48686;DHT22;34485;51.536;3.816;2022-09-09T03:03:43;14.70;99.90
48686;DHT22;34485;51.536;3.816;2022-09-09T03:06:10;14.70;99.90
48686;DHT22;34485;51.536;3.816;2022-09-09T03:08:37;14.70;99.90
48686;DHT22;34485;51.536;3.816;2022-09-09T03:11:03;14.80;99.90
48686;DHT22;34485;51.536;3.816;2022-09-09T03:13:29;14.80;99.90
48686;DHT22;34485;51.536;3.816;2022-09-09T03:15:54;14.80;99.90
48686;DHT22;34485;51.536;3.816;2022-09-09T03:18:20;14.90;99.90
48686;DHT22;34485;51.536;3.816;2022-09-09T03:20:46;14.90;99.90
48686;DHT22;34485;51.536;3.816;2022-09-09T03:23:14;14.90;99.90
48686;DHT22;34485;51.536;3.816;2022-09-09T03:25:39;14.90;99.90
48686;DHT22;34485;51.536;3.816;2022-09-09T03:28:11;14.90;99.90
48686;DHT22;34485;51.536;3.816;2022-09-09T03:30:37;15.00;99.90
48686;DHT22;34485;51.536;3.816;2022-09-09T03:33:03;14.90;99.90
48686;DHT22;34485;51.536;3.816;2022-09-09T03:35:29;15.00;99.90
48686;DHT22;34485;51.536;3.816;2022-09-09T03:37:55;15.00;99.90
48686;DHT22;34485;51.536;3.816;2022-09-09T03:40:21;14.90;99.90
48686;DHT22;34485;51.536;3.816;2022-09-09T03:42:46;15.00;99.90
48686;DHT22;34485;51.536;3.816;2022-09-09T03:45:13;15.00;99.90
48686;DHT22;34485;51.536;3.816;2022-09-09T03:47:39;15.00;99.90
48686;DHT22;34485;51.536;3.816;2022-09-09T03:50:06;14.90;99.90
48686;DHT22;34485;51.536;3.816;2022-09-09T03:52:38;14.90;99.90
48686;DHT22;34485;51.536;3.816;2022-09-09T03:55:05;14.90;99.90
48686;DHT22;34485;51.536;3.816;2022-09-09T03:57:31;14.90;99.90
48686;DHT22;34485;51.536;3.816;2022-09-09T03:59:57;14.90;99.90
48686;DHT22;34485;51.536;3.816;2022-09-09T04:02:23;14.90;99.90
48686;DHT22;34485;51.536;3.816;2022-09-09T04:04:49;14.90;99.90
48686;DHT22;34485;51.536;3.816;2022-09-09T04:07:15;14.90;99.90
48686;DHT22;34485;51.536;3.816;2022-09-09T04:09:41;14.90;99.90
48686;DHT22;34485;51.536;3.816;2022-09-09T04:12:06;14.90;99.90
48686;DHT22;34485;51.536;3.816;2022-09-09T04:14:32;14.90;99.90
48686;DHT22;34485;51.536;3.816;2022-09-09T04:16:58;15.00;99.90
48686;DHT22;34485;51.536;3.816;2022-09-09T04:19:25;15.00;99.90
48686;DHT22;34485;51.536;3.816;2022-09-09T04:21:51;15.00;99.90
48686;DHT22;34485;51.536;3.816;2022-09-09T04:24:17;15.00;99.90
48686;DHT22;34485;51.536;3.816;2022-09-09T04:26:43;15.00;99.90
48686;DHT22;34485;51.536;3.816;2022-09-09T04:29:09;15.00;99.90
48686;DHT22;34485;51.536;3.816;2022-09-09T04:31:35;15.00;99.90
48686;DHT22;34485;51.536;3.816;2022-09-09T04:34:01;15.00;99.90
48686;DHT22;34485;51.536;3.816;2022-09-09T04:36:31;15.00;99.90
48686;DHT22;34485;51.536;3.816;2022-09-09T04:38:57;15.00;99.90
48686;DHT22;34485;51.536;3.816;2022-09-09T04:41:23;15.00;99.90
48686;DHT22;34485;51.536;3.816;2022-09-09T04:43:49;15.00;99.90
48686;DHT22;34485;51.536;3.816;2022-09-09T04:46:15;15.10;99.90
48686;DHT22;34485;51.536;3.816;2022-09-09T04:48:43;15.10;99.90
48686;DHT22;34485;51.536;3.816;2022-09-09T04:51:12;15.10;99.90
48686;DHT22;34485;51.536;3.816;2022-09-09T04:53:38;15.10;99.90
48686;DHT22;34485;51.536;3.816;2022-09-09T04:58:38;15.10;99.90
48686;DHT22;34485;51.536;3.816;2022-09-09T05:01:09;15.10;99.90
48686;DHT22;34485;51.536;3.816;2022-09-09T05:03:35;15.10;99.90
48686;DHT22;34485;51.536;3.816;2022-09-09T05:06:08;15.20;99.90
48686;DHT22;34485;51.536;3.816;2022-09-09T05:08:39;15.20;99.90
48686;DHT22;34485;51.536;3.816;2022-09-09T05:11:22;15.20;99.90
48686;DHT22;34485;51.536;3.816;2022-09-09T05:13:51;15.20;99.90
48686;DHT22;34485;51.536;3.816;2022-09-09T05:16:18;15.20;99.90
48686;DHT22;34485;51.536;3.816;2022-09-09T05:18:44;15.20;99.90
48686;DHT22;34485;51.536;3.816;2022-09-09T05:21:12;15.20;99.90
48686;DHT22;34485;51.536;3.816;2022-09-09T05:23:38;15.30;99.90
48686;DHT22;34485;51.536;3.816;2022-09-09T05:26:05;15.30;99.90
48686;DHT22;34485;51.536;3.816;2022-09-09T05:28:33;15.30;99.90
48686;DHT22;34485;51.536;3.816;2022-09-09T05:31:04;15.40;99.90
48686;DHT22;34485;51.536;3.816;2022-09-09T05:33:31;15.40;99.90
48686;DHT22;34485;51.536;3.816;2022-09-09T05:36:23;15.40;99.90
48686;DHT22;34485;51.536;3.816;2022-09-09T05:38:49;15.40;99.90
48686;DHT22;34485;51.536;3.816;2022-09-09T05:41:15;15.40;99.90
48686;DHT22;34485;51.536;3.816;2022-09-09T05:43:43;15.40;99.90
48686;DHT22;34485;51.536;3.816;2022-09-09T05:46:15;15.50;99.90
48686;DHT22;34485;51.536;3.816;2022-09-09T05:48:43;15.50;99.90
48686;DHT22;34485;51.536;3.816;2022-09-09T05:51:14;15.50;99.90
48686;DHT22;34485;51.536;3.816;2022-09-09T05:53:43;15.60;99.90
48686;DHT22;34485;51.536;3.816;2022-09-09T05:56:15;15.60;99.90
48686;DHT22;34485;51.536;3.816;2022-09-09T05:58:41;15.70;99.90
48686;DHT22;34485;51.536;3.816;2022-09-09T06:01:11;15.80;99.90
48686;DHT22;34485;51.536;3.816;2022-09-09T06:03:40;15.80;99.90
48686;DHT22;34485;51.536;3.816;2022-09-09T06:06:08;15.90;99.90
48686;DHT22;34485;51.536;3.816;2022-09-09T06:08:36;15.90;99.90
48686;DHT22;34485;51.536;3.816;2022-09-09T06:11:05;15.90;99.90
48686;DHT22;34485;51.536;3.816;2022-09-09T06:13:31;15.90;99.90
48686;DHT22;34485;51.536;3.816;2022-09-09T06:15:57;15.90;99.90
48686;DHT22;34485;51.536;3.816;2022-09-09T06:18:24;15.90;99.90
48686;DHT22;34485;51.536;3.816;2022-09-09T06:21:00;16.00;99.90
48686;DHT22;34485;51.536;3.816;2022-09-09T06:23:27;16.10;99.90
48686;DHT22;34485;51.536;3.816;2022-09-09T06:26:10;16.10;99.90
48686;DHT22;34485;51.536;3.816;2022-09-09T06:28:36;16.20;99.90
48686;DHT22;34485;51.536;3.816;2022-09-09T06:31:06;16.20;99.90
48686;DHT22;34485;51.536;3.816;2022-09-09T06:33:34;16.30;99.90
48686;DHT22;34485;51.536;3.816;2022-09-09T06:36:01;16.40;99.90
48686;DHT22;34485;51.536;3.816;2022-09-09T06:38:27;16.60;99.90
48686;DHT22;34485;51.536;3.816;2022-09-09T06:40:58;16.70;99.90
48686;DHT22;34485;51.536;3.816;2022-09-09T06:43:27;16.80;99.90
48686;DHT22;34485;51.536;3.816;2022-09-09T06:48:26;17.00;99.90
48686;DHT22;34485;51.536;3.816;2022-09-09T06:51:14;17.10;99.90
48686;DHT22;34485;51.536;3.816;2022-09-09T06:53:41;17.20;99.90
48686;DHT22;34485;51.536;3.816;2022-09-09T06:58:45;17.50;99.90
48686;DHT22;34485;51.536;3.816;2022-09-09T07:01:13;17.40;99.90
48686;DHT22;34485;51.536;3.816;2022-09-09T07:03:39;17.40;99.90
48686;DHT22;34485;51.536;3.816;2022-09-09T07:06:06;17.20;99.90
48686;DHT22;34485;51.536;3.816;2022-09-09T07:08:33;17.20;99.90
48686;DHT22;34485;51.536;3.816;2022-09-09T07:11:03;17.10;99.90
48686;DHT22;34485;51.536;3.816;2022-09-09T07:13:33;17.10;99.90
48686;DHT22;34485;51.536;3.816;2022-09-09T07:16:11;17.20;99.90
48686;DHT22;34485;51.536;3.816;2022-09-09T07:18:39;17.20;99.90
48686;DHT22;34485;51.536;3.816;2022-09-09T07:35:46;17.80;99.90
48686;DHT22;34485;51.536;3.816;2022-09-09T07:38:11;18.00;99.90
48686;DHT22;34485;51.536;3.816;2022-09-09T07:40:37;18.20;99.90
48686;DHT22;34485;51.536;3.816;2022-09-09T07:43:03;18.40;99.20
48686;DHT22;34485;51.536;3.816;2022-09-09T07:45:29;18.40;97.70
48686;DHT22;34485;51.536;3.816;2022-09-09T07:47:58;18.40;97.50
48686;DHT22;34485;51.536;3.816;2022-09-09T07:50:23;18.60;97.00
48686;DHT22;34485;51.536;3.816;2022-09-09T07:52:51;18.60;96.50
48686;DHT22;34485;51.536;3.816;2022-09-09T07:55:17;18.40;96.70
48686;DHT22;34485;51.536;3.816;2022-09-09T07:57:42;18.40;97.90
48686;DHT22;34485;51.536;3.816;2022-09-09T08:00:08;18.30;98.20
48686;DHT22;34485;51.536;3.816;2022-09-09T08:02:35;18.20;98.40
48686;DHT22;34485;51.536;3.816;2022-09-09T08:05:01;18.10;98.80
48686;DHT22;34485;51.536;3.816;2022-09-09T08:07:27;18.00;98.70
48686;DHT22;34485;51.536;3.816;2022-09-09T08:09:54;17.90;99.40
48686;DHT22;34485;51.536;3.816;2022-09-09T08:12:21;17.70;99.90
48686;DHT22;34485;51.536;3.816;2022-09-09T08:14:46;17.60;99.90
48686;DHT22;34485;51.536;3.816;2022-09-09T08:17:13;17.50;99.90
48686;DHT22;34485;51.536;3.816;2022-09-09T08:19:38;17.50;99.90
48686;DHT22;34485;51.536;3.816;2022-09-09T08:22:04;17.50;99.90
48686;DHT22;34485;51.536;3.816;2022-09-09T08:24:29;17.50;99.90
48686;DHT22;34485;51.536;3.816;2022-09-09T08:26:55;17.40;99.90
48686;DHT22;34485;51.536;3.816;2022-09-09T08:29:22;17.50;99.90
48686;DHT22;34485;51.536;3.816;2022-09-09T08:31:50;17.50;99.90
48686;DHT22;34485;51.536;3.816;2022-09-09T08:34:17;17.50;99.90
48686;DHT22;34485;51.536;3.816;2022-09-09T08:36:46;17.40;99.90
48686;DHT22;34485;51.536;3.816;2022-09-09T08:42:13;17.40;99.90
48686;DHT22;34485;51.536;3.816;2022-09-09T08:55:48;17.00;99.90
48686;DHT22;34485;51.536;3.816;2022-09-09T08:58:25;16.80;99.90
48686;DHT22;34485;51.536;3.816;2022-09-09T09:11:39;16.90;99.90
48686;DHT22;34485;51.536;3.816;2022-09-09T09:14:25;17.10;99.90
48686;DHT22;34485;51.536;3.816;2022-09-09T09:17:12;17.20;99.90
48686;DHT22;34485;51.536;3.816;2022-09-09T09:19:40;17.40;99.90
48686;DHT22;34485;51.536;3.816;2022-09-09T09:22:29;17.60;99.90
48686;DHT22;34485;51.536;3.816;2022-09-09T09:25:18;17.80;99.90
48686;DHT22;34485;51.536;3.816;2022-09-09T09:27:57;18.10;99.90
48686;DHT22;34485;51.536;3.816;2022-09-09T09:30:29;18.50;99.90
48686;DHT22;34485;51.536;3.816;2022-09-09T09:33:05;18.70;98.50
48686;DHT22;34485;51.536;3.816;2022-09-09T09:35:31;18.80;97.10
48686;DHT22;34485;51.536;3.816;2022-09-09T09:37:57;18.90;97.30
48686;DHT22;34485;51.536;3.816;2022-09-09T09:40:26;18.90;97.30
48686;DHT22;34485;51.536;3.816;2022-09-09T09:42:57;19.20;95.80
48686;DHT22;34485;51.536;3.816;2022-09-09T09:48:02;19.30;95.30
48686;DHT22;34485;51.536;3.816;2022-09-09T09:50:28;19.30;95.40
48686;DHT22;34485;51.536;3.816;2022-09-09T09:53:04;19.60;96.60
48686;DHT22;34485;51.536;3.816;2022-09-09T09:55:33;20.00;93.80
48686;DHT22;34485;51.536;3.816;2022-09-09T09:58:05;20.30;92.40
48686;DHT22;34485;51.536;3.816;2022-09-09T10:00:31;20.40;91.10
48686;DHT22;34485;51.536;3.816;2022-09-09T10:02:59;20.20;90.90
48686;DHT22;34485;51.536;3.816;2022-09-09T10:05:27;19.90;92.30
48686;DHT22;34485;51.536;3.816;2022-09-09T10:08:16;19.70;93.20
48686;DHT22;34485;51.536;3.816;2022-09-09T10:18:35;19.70;94.10
48686;DHT22;34485;51.536;3.816;2022-09-09T10:21:32;19.50;96.00
48686;DHT22;34485;51.536;3.816;2022-09-09T10:27:32;19.10;99.90
48686;DHT22;34485;51.536;3.816;2022-09-09T10:30:16;18.70;99.90
48686;DHT22;34485;51.536;3.816;2022-09-09T10:33:03;18.70;99.90
48686;DHT22;34485;51.536;3.816;2022-09-09T10:38:30;19.10;99.90
48686;DHT22;34485;51.536;3.816;2022-09-09T10:41:09;19.10;99.90
48686;DHT22;34485;51.536;3.816;2022-09-09T10:44:06;18.80;99.90
48686;DHT22;34485;51.536;3.816;2022-09-09T10:46:46;18.40;99.90
48686;DHT22;34485;51.536;3.816;2022-09-09T10:49:24;18.00;99.90
48686;DHT22;34485;51.536;3.816;2022-09-09T10:57:46;17.40;99.90
48686;DHT22;34485;51.536;3.816;2022-09-09T11:02:42;17.40;99.90
48686;DHT22;34485;51.536;3.816;2022-09-09T11:05:36;17.20;99.90
48686;DHT22;34485;51.536;3.816;2022-09-09T11:11:04;17.00;99.90
48686;DHT22;34485;51.536;3.816;2022-09-09T11:46:46;16.70;99.90
48686;DHT22;34485;51.536;3.816;2022-09-09T11:49:53;16.60;99.90
48686;DHT22;34485;51.536;3.816;2022-09-09T11:52:23;16.60;99.90
48686;DHT22;34485;51.536;3.816;2022-09-09T11:54:51;16.50;99.90
48686;DHT22;34485;51.536;3.816;2022-09-09T11:57:24;16.50;99.90
48686;DHT22;34485;51.536;3.816;2022-09-09T11:59:51;16.50;99.90
48686;DHT22;34485;51.536;3.816;2022-09-09T12:02:24;16.60;99.90
48686;DHT22;34485;51.536;3.816;2022-09-09T12:07:36;16.90;99.90
48686;DHT22;34485;51.536;3.816;2022-09-09T12:12:37;17.40;99.90
48686;DHT22;34485;51.536;3.816;2022-09-09T12:17:53;18.20;99.90
48686;DHT22;34485;51.536;3.816;2022-09-09T12:20:31;18.40;99.90
48686;DHT22;34485;51.536;3.816;2022-09-09T12:26:14;18.40;99.90
48686;DHT22;34485;51.536;3.816;2022-09-09T12:34:46;18.00;99.90
48686;DHT22;34485;51.536;3.816;2022-09-09T12:40:03;17.90;99.90
48686;DHT22;34485;51.536;3.816;2022-09-09T12:42:30;17.90;99.90
48686;DHT22;34485;51.536;3.816;2022-09-09T12:44:58;17.90;99.90
48686;DHT22;34485;51.536;3.816;2022-09-09T12:47:46;17.70;99.90
48686;DHT22;34485;51.536;3.816;2022-09-09T12:52:43;17.50;99.90
48686;DHT22;34485;51.536;3.816;2022-09-09T12:55:19;17.40;99.90
48686;DHT22;34485;51.536;3.816;2022-09-09T12:57:48;17.20;99.90
48686;DHT22;34485;51.536;3.816;2022-09-09T13:00:20;17.00;99.90
48686;DHT22;34485;51.536;3.816;2022-09-09T13:02:56;16.90;99.90
48686;DHT22;34485;51.536;3.816;2022-09-09T13:07:50;16.80;99.90
48686;DHT22;34485;51.536;3.816;2022-09-09T13:10:23;16.70;99.90
48686;DHT22;34485;51.536;3.816;2022-09-09T13:12:49;16.70;99.90
48686;DHT22;34485;51.536;3.816;2022-09-09T13:15:26;16.70;99.90
48686;DHT22;34485;51.536;3.816;2022-09-09T13:17:59;16.70;99.90
48686;DHT22;34485;51.536;3.816;2022-09-09T13:20:27;16.70;99.90
48686;DHT22;34485;51.536;3.816;2022-09-09T13:22:54;16.90;99.90
48686;DHT22;34485;51.536;3.816;2022-09-09T13:25:27;17.10;99.90
48686;DHT22;34485;51.536;3.816;2022-09-09T13:27:59;17.30;99.90
48686;DHT22;34485;51.536;3.816;2022-09-09T13:30:27;17.60;99.90
48686;DHT22;34485;51.536;3.816;2022-09-09T13:33:05;17.90;99.90
48686;DHT22;34485;51.536;3.816;2022-09-09T13:35:31;18.10;99.90
48686;DHT22;34485;51.536;3.816;2022-09-09T13:37:58;18.10;99.90
48686;DHT22;34485;51.536;3.816;2022-09-09T13:40:25;18.10;99.90
48686;DHT22;34485;51.536;3.816;2022-09-09T13:42:55;18.00;99.90
48686;DHT22;34485;51.536;3.816;2022-09-09T13:45:23;18.00;99.90
48686;DHT22;34485;51.536;3.816;2022-09-09T13:47:52;18.00;99.90
48686;DHT22;34485;51.536;3.816;2022-09-09T13:50:28;18.20;99.90
48686;DHT22;34485;51.536;3.816;2022-09-09T13:52:58;18.30;99.90
48686;DHT22;34485;51.536;3.816;2022-09-09T13:55:27;18.50;99.90
48686;DHT22;34485;51.536;3.816;2022-09-09T13:58:01;18.50;99.90
48686;DHT22;34485;51.536;3.816;2022-09-09T14:00:29;18.40;99.90
48686;DHT22;34485;51.536;3.816;2022-09-09T14:02:55;18.40;99.90
48686;DHT22;34485;51.536;3.816;2022-09-09T14:05:21;18.30;99.90
48686;DHT22;34485;51.536;3.816;2022-09-09T14:10:13;18.00;99.90
48686;DHT22;34485;51.536;3.816;2022-09-09T14:12:39;17.90;99.90
48686;DHT22;34485;51.536;3.816;2022-09-09T14:15:06;18.00;99.90
48686;DHT22;34485;51.536;3.816;2022-09-09T14:17:32;18.10;99.90
48686;DHT22;34485;51.536;3.816;2022-09-09T14:19:58;18.20;99.90
48686;DHT22;34485;51.536;3.816;2022-09-09T14:22:24;18.20;99.90
48686;DHT22;34485;51.536;3.816;2022-09-09T14:24:50;18.20;99.90
48686;DHT22;34485;51.536;3.816;2022-09-09T14:27:17;18.20;99.90
48686;DHT22;34485;51.536;3.816;2022-09-09T14:29:44;18.20;99.90
48686;DHT22;34485;51.536;3.816;2022-09-09T14:32:11;18.10;99.90
48686;DHT22;34485;51.536;3.816;2022-09-09T14:34:36;18.10;99.90
48686;DHT22;34485;51.536;3.816;2022-09-09T14:37:02;18.20;99.90
48686;DHT22;34485;51.536;3.816;2022-09-09T14:39:28;18.30;99.90
48686;DHT22;34485;51.536;3.816;2022-09-09T14:41:54;18.50;99.90
48686;DHT22;34485;51.536;3.816;2022-09-09T14:44:20;18.70;99.90
48686;DHT22;34485;51.536;3.816;2022-09-09T14:46:45;18.70;99.90
48686;DHT22;34485;51.536;3.816;2022-09-09T14:49:11;18.80;99.90
48686;DHT22;34485;51.536;3.816;2022-09-09T14:51:38;18.80;99.90
48686;DHT22;34485;51.536;3.816;2022-09-09T14:54:03;18.80;99.90
48686;DHT22;34485;51.536;3.816;2022-09-09T14:56:31;18.70;99.90
48686;DHT22;34485;51.536;3.816;2022-09-09T14:58:58;18.60;99.90
48686;DHT22;34485;51.536;3.816;2022-09-09T15:01:26;18.60;99.90
48686;DHT22;34485;51.536;3.816;2022-09-09T15:03:54;18.70;99.90
48686;DHT22;34485;51.536;3.816;2022-09-09T15:06:22;19.00;99.90
48686;DHT22;34485;51.536;3.816;2022-09-09T15:08:50;19.20;99.90
48686;DHT22;34485;51.536;3.816;2022-09-09T15:11:17;19.40;99.90
48686;DHT22;34485;51.536;3.816;2022-09-09T15:13:43;19.60;99.90
48686;DHT22;34485;51.536;3.816;2022-09-09T15:16:14;19.50;99.90
48686;DHT22;34485;51.536;3.816;2022-09-09T15:18:40;19.50;99.90
48686;DHT22;34485;51.536;3.816;2022-09-09T15:21:08;19.40;99.90
48686;DHT22;34485;51.536;3.816;2022-09-09T15:23:35;19.20;99.90
48686;DHT22;34485;51.536;3.816;2022-09-09T15:26:01;18.80;99.90
48686;DHT22;34485;51.536;3.816;2022-09-09T15:28:27;18.60;99.90
48686;DHT22;34485;51.536;3.816;2022-09-09T15:30:53;18.20;99.90
48686;DHT22;34485;51.536;3.816;2022-09-09T15:33:20;18.00;99.90
48686;DHT22;34485;51.536;3.816;2022-09-09T15:35:46;17.90;99.90
48686;DHT22;34485;51.536;3.816;2022-09-09T15:38:12;18.00;99.90
48686;DHT22;34485;51.536;3.816;2022-09-09T15:40:39;18.10;99.90
48686;DHT22;34485;51.536;3.816;2022-09-09T15:43:05;18.20;99.90
48686;DHT22;34485;51.536;3.816;2022-09-09T15:45:32;18.30;99.90
48686;DHT22;34485;51.536;3.816;2022-09-09T15:47:59;18.40;99.90
48686;DHT22;34485;51.536;3.816;2022-09-09T15:50:26;18.40;99.90
48686;DHT22;34485;51.536;3.816;2022-09-09T15:52:51;18.30;99.90
48686;DHT22;34485;51.536;3.816;2022-09-09T15:55:18;18.30;99.90
48686;DHT22;34485;51.536;3.816;2022-09-09T15:57:45;18.30;99.90
48686;DHT22;34485;51.536;3.816;2022-09-09T16:00:12;18.20;99.90
48686;DHT22;34485;51.536;3.816;2022-09-09T16:02:38;18.20;99.90
48686;DHT22;34485;51.536;3.816;2022-09-09T16:05:04;18.10;99.90
48686;DHT22;34485;51.536;3.816;2022-09-09T16:07:30;18.10;99.90
48686;DHT22;34485;51.536;3.816;2022-09-09T16:09:56;18.00;99.90
48686;DHT22;34485;51.536;3.816;2022-09-09T16:12:21;18.00;99.90
48686;DHT22;34485;51.536;3.816;2022-09-09T16:14:47;18.00;99.90
48686;DHT22;34485;51.536;3.816;2022-09-09T16:17:13;17.90;99.90
48686;DHT22;34485;51.536;3.816;2022-09-09T16:19:39;18.00;99.90
48686;DHT22;34485;51.536;3.816;2022-09-09T16:22:05;18.00;99.90
48686;DHT22;34485;51.536;3.816;2022-09-09T16:24:32;18.00;99.90
48686;DHT22;34485;51.536;3.816;2022-09-09T16:26:58;18.00;99.90
48686;DHT22;34485;51.536;3.816;2022-09-09T16:29:24;17.90;99.90
48686;DHT22;34485;51.536;3.816;2022-09-09T16:31:53;17.80;99.90
48686;DHT22;34485;51.536;3.816;2022-09-09T16:34:19;17.80;99.90
48686;DHT22;34485;51.536;3.816;2022-09-09T16:36:46;17.70;99.90
48686;DHT22;34485;51.536;3.816;2022-09-09T16:39:14;17.60;99.90
48686;DHT22;34485;51.536;3.816;2022-09-09T16:41:42;17.60;99.90
48686;DHT22;34485;51.536;3.816;2022-09-09T16:44:11;17.50;99.90
48686;DHT22;34485;51.536;3.816;2022-09-09T16:46:39;17.60;99.90
48686;DHT22;34485;51.536;3.816;2022-09-09T16:49:06;17.50;99.90
48686;DHT22;34485;51.536;3.816;2022-09-09T16:51:35;17.50;99.90
48686;DHT22;34485;51.536;3.816;2022-09-09T16:54:02;17.50;99.90
48686;DHT22;34485;51.536;3.816;2022-09-09T16:56:30;17.50;99.90
48686;DHT22;34485;51.536;3.816;2022-09-09T16:58:59;17.40;99.90
48686;DHT22;34485;51.536;3.816;2022-09-09T17:01:30;17.40;99.90
48686;DHT22;34485;51.536;3.816;2022-09-09T17:03:59;17.40;99.90
48686;DHT22;34485;51.536;3.816;2022-09-09T17:06:29;17.40;99.90
48686;DHT22;34485;51.536;3.816;2022-09-09T17:08:57;17.50;99.90
48686;DHT22;34485;51.536;3.816;2022-09-09T17:11:23;17.50;99.90
48686;DHT22;34485;51.536;3.816;2022-09-09T17:13:49;17.50;99.90
48686;DHT22;34485;51.536;3.816;2022-09-09T17:16:17;17.60;99.90
48686;DHT22;34485;51.536;3.816;2022-09-09T17:18:43;17.80;99.90
48686;DHT22;34485;51.536;3.816;2022-09-09T17:21:14;17.90;99.90
48686;DHT22;34485;51.536;3.816;2022-09-09T17:23:41;17.90;99.90
48686;DHT22;34485;51.536;3.816;2022-09-09T17:26:09;18.00;99.90
48686;DHT22;34485;51.536;3.816;2022-09-09T17:28:38;18.10;99.90
48686;DHT22;34485;51.536;3.816;2022-09-09T17:31:06;18.00;99.90
48686;DHT22;34485;51.536;3.816;2022-09-09T17:33:37;18.00;99.90
48686;DHT22;34485;51.536;3.816;2022-09-09T17:36:12;17.90;99.90
48686;DHT22;34485;51.536;3.816;2022-09-09T17:38:38;17.80;99.90
48686;DHT22;34485;51.536;3.816;2022-09-09T17:43:37;17.70;99.90
48686;DHT22;34485;51.536;3.816;2022-09-09T17:46:07;17.60;99.90
48686;DHT22;34485;51.536;3.816;2022-09-09T17:48:33;17.50;99.90
48686;DHT22;34485;51.536;3.816;2022-09-09T17:50:59;17.40;99.90
48686;DHT22;34485;51.536;3.816;2022-09-09T17:53:25;17.30;99.90
48686;DHT22;34485;51.536;3.816;2022-09-09T17:55:51;17.30;99.90
48686;DHT22;34485;51.536;3.816;2022-09-09T17:58:17;17.20;99.90
48686;DHT22;34485;51.536;3.816;2022-09-09T18:00:42;17.10;99.90
48686;DHT22;34485;51.536;3.816;2022-09-09T18:03:08;17.00;99.90
48686;DHT22;34485;51.536;3.816;2022-09-09T18:05:34;17.10;99.90
48686;DHT22;34485;51.536;3.816;2022-09-09T18:07:59;17.00;99.90
48686;DHT22;34485;51.536;3.816;2022-09-09T18:10:25;17.00;99.90
48686;DHT22;34485;51.536;3.816;2022-09-09T18:12:51;17.00;99.90
48686;DHT22;34485;51.536;3.816;2022-09-09T18:15:17;17.00;99.90
48686;DHT22;34485;51.536;3.816;2022-09-09T18:17:42;17.00;99.90
48686;DHT22;34485;51.536;3.816;2022-09-09T18:20:08;17.00;99.90
48686;DHT22;34485;51.536;3.816;2022-09-09T18:22:35;17.00;99.90
48686;DHT22;34485;51.536;3.816;2022-09-09T18:25:01;17.10;99.90
48686;DHT22;34485;51.536;3.816;2022-09-09T18:27:26;17.10;99.90
48686;DHT22;34485;51.536;3.816;2022-09-09T18:29:53;17.00;99.90
48686;DHT22;34485;51.536;3.816;2022-09-09T18:32:19;17.10;99.90
48686;DHT22;34485;51.536;3.816;2022-09-09T18:34:44;17.00;99.90
48686;DHT22;34485;51.536;3.816;2022-09-09T18:37:10;17.10;99.90
48686;DHT22;34485;51.536;3.816;2022-09-09T18:39:36;17.00;99.90
48686;DHT22;34485;51.536;3.816;2022-09-09T18:42:02;17.10;99.90
48686;DHT22;34485;51.536;3.816;2022-09-09T18:44:32;17.00;99.90
48686;DHT22;34485;51.536;3.816;2022-09-09T18:46:58;17.10;99.90
48686;DHT22;34485;51.536;3.816;2022-09-09T18:49:25;17.00;99.90